Data Viewer
| City | State | Eastern Time | Source | Temp | DewPt | RH | BP | 5 Min Precip | Wind Speed | Wind Dir | 5 Min Wind Max | 5 Min Wind Max Dir |
|---|---|---|---|---|---|---|---|---|---|---|---|---|
| New York LGA | NY | 2026-05-08 17:51 | ASOS | 61 | 40 | 46 | 29.86 | 7 | N | |||
| New York LGA | NY | 2026-05-09 04:15 | ASOS | 55 | 46 | 72 | 29.89 | 5 | ENE | |||
| New York LGA | NY | 2026-05-09 05:00 | ASOS | 55 | 46 | 72 | 29.89 | 3 | ENE | |||
| New York LGA | NY | 2026-05-09 04:51 | ASOS | 55 | 47 | 74 | 29.89 | 5 | E | |||
| New York LGA | NY | 2026-05-09 04:40 | ASOS | 54 | 48 | 82 | 29.89 | 6 | ENE | |||
| New York LGA | NY | 2026-05-09 04:35 | ASOS | 54 | 48 | 82 | 29.88 | 6 | NE | |||
| New York LGA | NY | 2026-05-09 04:30 | ASOS | 54 | 48 | 82 | 29.89 | 6 | NE | |||
| New York LGA | NY | 2026-05-09 04:25 | ASOS | 55 | 46 | 72 | 29.89 | 6 | NE | |||
| New York LGA | NY | 2026-05-09 04:20 | ASOS | 55 | 46 | 72 | 29.89 | 5 | ENE | |||
| New York LGA | NY | 2026-05-09 03:51 | ASOS | 56 | 45 | 67 | 29.90 | 5 | SSE | |||
| New York LGA | NY | 2026-05-09 05:10 | ASOS | 54 | 48 | 82 | 29.89 | 5 | NE | |||
| New York LGA | NY | 2026-05-09 03:35 | ASOS | 55 | 44 | 67 | 29.90 | 3 | SSE | |||
| New York LGA | NY | 2026-05-09 03:30 | ASOS | 55 | 46 | 72 | 29.90 | 0 | N | |||
| New York LGA | NY | 2026-05-09 03:25 | ASOS | 55 | 46 | 72 | 29.90 | 3 | E | |||
| New York LGA | NY | 2026-05-09 03:20 | ASOS | 55 | 46 | 72 | 29.89 | 3 | E | |||
| New York LGA | NY | 2026-05-09 03:15 | ASOS | 54 | 46 | 77 | 29.89 | 3 | E | |||
| New York LGA | NY | 2026-05-09 02:51 | ASOS | 56 | 44 | 64 | 29.88 | 5 | E | |||
| New York LGA | NY | 2026-05-09 02:35 | ASOS | 55 | 44 | 67 | 29.89 | 6 | ESE | |||
| New York LGA | NY | 2026-05-09 05:05 | ASOS | 55 | 46 | 72 | 29.89 | 6 | NE | |||
| New York LGA | NY | 2026-05-09 05:15 | ASOS | 54 | 48 | 82 | 29.88 | 6 | ENE | |||
| New York LGA | NY | 2026-05-09 02:20 | ASOS | 55 | 44 | 67 | 29.90 | 6 | ESE | |||
| New York LGA | NY | 2026-05-09 06:40 | ASOS | 54 | 46 | 77 | 29.89 | 8 | ENE | |||
| New York LGA | NY | 2026-05-09 09:51 | ASOS | 60 | 48 | 64 | 29.88 | |||||
| New York LGA | NY | 2026-05-09 09:05 | ASOS | 59 | 46 | 63 | 29.89 | 8 | S | |||
| New York LGA | NY | 2026-05-09 08:25 | ASOS | 55 | 48 | 77 | 29.90 | 6 | NNE | |||
| New York LGA | NY | 2026-05-09 08:15 | ASOS | 55 | 48 | 77 | 29.89 | 5 | NE | |||
| New York LGA | NY | 2026-05-09 07:51 | ASOS | 55 | 48 | 77 | 29.90 | 6 | ENE | |||
| New York LGA | NY | 2026-05-09 07:25 | ASOS | 55 | 48 | 77 | 29.90 | 6 | NE | |||
| New York LGA | NY | 2026-05-09 07:20 | ASOS | 55 | 48 | 77 | 29.90 | 6 | ENE | |||
| New York LGA | NY | 2026-05-09 06:35 | ASOS | 54 | 46 | 77 | 29.89 | 7 | NE | |||
| New York LGA | NY | 2026-05-09 05:20 | ASOS | 54 | 46 | 77 | 29.88 | 6 | NE | |||
| New York LGA | NY | 2026-05-09 06:25 | ASOS | 54 | 46 | 77 | 29.89 | 6 | NE | |||
| New York LGA | NY | 2026-05-09 06:20 | ASOS | 55 | 46 | 72 | 29.89 | 7 | ENE | |||
| New York LGA | NY | 2026-05-09 06:15 | ASOS | 55 | 46 | 72 | 29.89 | 6 | E | |||
| New York LGA | NY | 2026-05-09 06:10 | ASOS | 55 | 46 | 72 | 29.89 | 6 | ENE | |||
| New York LGA | NY | 2026-05-09 05:51 | ASOS | 54 | 48 | 80 | 29.89 | 7 | NE | |||
| New York LGA | NY | 2026-05-09 05:35 | ASOS | 54 | 48 | 82 | 29.88 | 6 | NE | |||
| New York LGA | NY | 2026-05-09 05:30 | ASOS | 54 | 46 | 77 | 29.88 | 6 | ENE | |||
| New York LGA | NY | 2026-05-09 05:25 | ASOS | 54 | 46 | 77 | 29.88 | 6 | NE | |||
| New York LGA | NY | 2026-05-09 02:25 | ASOS | 55 | 44 | 67 | 29.90 | 5 | ESE | |||
| New York LGA | NY | 2026-05-09 02:15 | ASOS | 55 | 44 | 67 | 29.90 | 3 | ENE | |||
| New York LGA | NY | 2026-05-08 18:05 | ASOS | 61 | 39 | 45 | 29.86 | 6 | NW | |||
| New York LGA | NY | 2026-05-08 20:15 | ASOS | 59 | 37 | 44 | 29.88 | 0 | N | |||
| New York LGA | NY | 2026-05-08 21:35 | ASOS | 57 | 41 | 55 | 29.91 | 9 | SE | |||
| New York LGA | NY | 2026-05-08 21:25 | ASOS | 61 | 39 | 45 | 29.90 | 9 | E | |||
| New York LGA | NY | 2026-05-08 21:20 | ASOS | 60 | 39 | 46 | 29.90 | 8 | ESE | |||
| New York LGA | NY | 2026-05-08 21:15 | ASOS | 61 | 39 | 45 | 29.90 | 7 | E | |||
| New York LGA | NY | 2026-05-08 20:51 | ASOS | 59 | 39 | 47 | 29.88 | 5 | ENE | |||
| New York LGA | NY | 2026-05-08 20:25 | ASOS | 59 | 39 | 48 | 29.88 | 5 | NNE | |||
| New York LGA | NY | 2026-05-08 20:20 | ASOS | 59 | 39 | 48 | 29.88 | 3 | NNE | |||
| New York LGA | NY | 2026-05-08 19:51 | ASOS | 59 | 39 | 47 | 29.88 | 3 | WNW | |||
| New York LGA | NY | 2026-05-08 22:20 | ASOS | 57 | 43 | 59 | 29.91 | 6 | SSE | |||
| New York LGA | NY | 2026-05-08 19:25 | ASOS | 59 | 39 | 48 | 29.87 | 7 | NW | |||
| New York LGA | NY | 2026-05-08 19:20 | ASOS | 59 | 39 | 48 | 29.86 | 6 | NNW | |||
| New York LGA | NY | 2026-05-08 19:15 | ASOS | 59 | 39 | 48 | 29.87 | 6 | NNW | |||
| New York LGA | NY | 2026-05-08 18:51 | ASOS | 60 | 40 | 47 | 29.86 | 8 | NNW | |||
| New York LGA | NY | 2026-05-08 18:25 | ASOS | 61 | 39 | 45 | 29.86 | 6 | WNW | |||
| New York LGA | NY | 2026-05-08 18:20 | ASOS | 61 | 39 | 45 | 29.86 | 6 | NW | |||
| New York LGA | NY | 2026-05-08 18:15 | ASOS | 61 | 39 | 45 | 29.86 | 6 | WNW | |||
| New York LGA | NY | 2026-05-08 18:10 | ASOS | 61 | 39 | 45 | 29.86 | 6 | WNW | |||
| New York LGA | NY | 2026-05-08 21:51 | ASOS | 58 | 41 | 53 | 29.91 | 9 | SE | |||
| New York LGA | NY | 2026-05-08 22:25 | ASOS | 57 | 41 | 55 | 29.91 | 7 | SSE | |||
| New York LGA | NY | 2026-05-09 01:51 | ASOS | 55 | 47 | 74 | 29.91 | 5 | NE | |||
| New York LGA | NY | 2026-05-09 00:25 | ASOS | 55 | 46 | 72 | 29.91 | 3 | ENE | |||
| New York LGA | NY | 2026-05-09 01:35 | ASOS | 55 | 48 | 77 | 29.91 | 3 | ENE | |||
| New York LGA | NY | 2026-05-09 01:25 | ASOS | 55 | 46 | 72 | 29.91 | 3 | NE | |||
| New York LGA | NY | 2026-05-09 01:20 | ASOS | 55 | 44 | 67 | 29.91 | 0 | N | |||
| New York LGA | NY | 2026-05-09 01:15 | ASOS | 55 | 46 | 72 | 29.91 | 3 | NE | |||
| New York LGA | NY | 2026-05-09 01:10 | ASOS | 55 | 46 | 72 | 29.91 | 3 | NNE | |||
| New York LGA | NY | 2026-05-09 01:05 | ASOS | 55 | 44 | 67 | 29.91 | 5 | NNE | |||
| New York LGA | NY | 2026-05-09 00:51 | ASOS | 55 | 46 | 72 | 29.91 | 3 | NE | |||
| New York LGA | NY | 2026-05-09 00:20 | ASOS | 55 | 46 | 72 | 29.91 | 3 | ENE | |||
| New York LGA | NY | 2026-05-08 22:35 | ASOS | 57 | 41 | 55 | 29.92 | 9 | SSE | |||
| New York LGA | NY | 2026-05-09 00:15 | ASOS | 55 | 46 | 72 | 29.91 | 3 | ENE | |||
| New York LGA | NY | 2026-05-09 00:05 | ASOS | 55 | 44 | 67 | 29.91 | 3 | NE | |||
| New York LGA | NY | 2026-05-08 23:51 | ASOS | 56 | 44 | 64 | 29.91 | 6 | E | |||
| New York LGA | NY | 2026-05-08 23:35 | ASOS | 57 | 39 | 51 | 29.91 | 5 | SE | |||
| New York LGA | NY | 2026-05-08 23:25 | ASOS | 57 | 41 | 55 | 29.91 | 5 | SSE | |||
| New York LGA | NY | 2026-05-08 23:20 | ASOS | 57 | 41 | 55 | 29.92 | 0 | N | |||
| New York LGA | NY | 2026-05-08 23:15 | ASOS | 57 | 41 | 55 | 29.92 | 3 | SE | |||
| New York LGA | NY | 2026-05-08 22:51 | ASOS | 58 | 41 | 53 | 29.92 | 5 | S | |||
| New York LGA | NY | 2026-05-09 10:51 | ASOS | 64 | 48 | 56 | 29.88 | 9 | SW |
data collection created in 0.012759923934937 (queried in 0.002915) rendered in: 0.00010800361633301

